Bolingbroke, Georgia
Current Conditions -  °F | °C
As of 4:53 AM on Saturday 22 Nov 2014 (Local Time) from KMCN Reporting Station
Clear Clear  
Wind Chill: 32°   Ceiling: Unl
Heat Index: 32°   Visibility: 9mi
Dew Point: 32°   Wind: 3mph
Humidity: 100%   Direction: 80°E
Pressure: 30.42"   Gusts: NA
Location:  32.95°N, 83.8°W
Report Text: KMCN 220953Z AUTO 08003KT 9SM CLR 00/00 A3042 RMK AO2 SLP301 T00000000 TSNO $
Loading
Personal Weather Stations






























Interactive Weather Map New forecast layout! Learn more

10-Day Weather Forecast

Advertisements
Track Severe Weather on mobile